sensor_id;sensor_type;location;lat;lon;timestamp;P1;durP1;ratioP1;P2;durP2;ratioP2
25191;SDS011;13143;50.924;5.320;2023-05-07T00:00:13;11.88;;;7.72;;
25191;SDS011;13143;50.924;5.320;2023-05-07T00:02:43;12.00;;;7.15;;
25191;SDS011;13143;50.924;5.320;2023-05-07T00:05:11;14.13;;;8.25;;
25191;SDS011;13143;50.924;5.320;2023-05-07T00:07:38;9.90;;;7.03;;
25191;SDS011;13143;50.924;5.320;2023-05-07T00:10:07;12.40;;;8.15;;
25191;SDS011;13143;50.924;5.320;2023-05-07T00:12:34;11.27;;;7.88;;
25191;SDS011;13143;50.924;5.320;2023-05-07T00:15:03;12.43;;;6.97;;
25191;SDS011;13143;50.924;5.320;2023-05-07T00:17:31;10.20;;;6.85;;
25191;SDS011;13143;50.924;5.320;2023-05-07T00:19:58;11.43;;;6.97;;
25191;SDS011;13143;50.924;5.320;2023-05-07T00:22:24;10.15;;;7.45;;
25191;SDS011;13143;50.924;5.320;2023-05-07T00:24:51;12.48;;;7.50;;
25191;SDS011;13143;50.924;5.320;2023-05-07T00:27:17;10.93;;;7.03;;
25191;SDS011;13143;50.924;5.320;2023-05-07T00:29:43;9.70;;;7.07;;
25191;SDS011;13143;50.924;5.320;2023-05-07T00:32:15;11.45;;;7.03;;
25191;SDS011;13143;50.924;5.320;2023-05-07T00:34:42;12.40;;;6.85;;
25191;SDS011;13143;50.924;5.320;2023-05-07T00:37:12;12.52;;;6.82;;
25191;SDS011;13143;50.924;5.320;2023-05-07T00:39:38;11.20;;;7.30;;
25191;SDS011;13143;50.924;5.320;2023-05-07T00:42:05;17.15;;;7.53;;
25191;SDS011;13143;50.924;5.320;2023-05-07T00:44:31;13.40;;;7.10;;
25191;SDS011;13143;50.924;5.320;2023-05-07T00:47:03;12.80;;;8.02;;
25191;SDS011;13143;50.924;5.320;2023-05-07T00:49:52;11.07;;;7.65;;
25191;SDS011;13143;50.924;5.320;2023-05-07T00:52:18;12.13;;;7.75;;
25191;SDS011;13143;50.924;5.320;2023-05-07T00:54:47;11.75;;;8.30;;
25191;SDS011;13143;50.924;5.320;2023-05-07T00:57:19;11.80;;;8.37;;
25191;SDS011;13143;50.924;5.320;2023-05-07T00:59:53;12.63;;;8.35;;
25191;SDS011;13143;50.924;5.320;2023-05-07T01:02:19;15.15;;;8.68;;
25191;SDS011;13143;50.924;5.320;2023-05-07T01:04:49;11.85;;;8.25;;
25191;SDS011;13143;50.924;5.320;2023-05-07T01:07:24;11.02;;;8.20;;
25191;SDS011;13143;50.924;5.320;2023-05-07T01:10:00;11.95;;;8.13;;
25191;SDS011;13143;50.924;5.320;2023-05-07T01:12:30;10.32;;;7.97;;
25191;SDS011;13143;50.924;5.320;2023-05-07T01:14:57;10.25;;;8.10;;
25191;SDS011;13143;50.924;5.320;2023-05-07T01:17:23;13.38;;;7.88;;
25191;SDS011;13143;50.924;5.320;2023-05-07T01:19:50;11.05;;;7.70;;
25191;SDS011;13143;50.924;5.320;2023-05-07T01:22:52;11.05;;;6.88;;
25191;SDS011;13143;50.924;5.320;2023-05-07T01:25:11;11.30;;;6.68;;
25191;SDS011;13143;50.924;5.320;2023-05-07T01:27:39;9.75;;;6.40;;
25191;SDS011;13143;50.924;5.320;2023-05-07T01:30:05;8.07;;;6.15;;
25191;SDS011;13143;50.924;5.320;2023-05-07T01:33:02;9.93;;;6.45;;
25191;SDS011;13143;50.924;5.320;2023-05-07T01:35:36;11.45;;;6.60;;
25191;SDS011;13143;50.924;5.320;2023-05-07T01:38:05;12.57;;;7.00;;
25191;SDS011;13143;50.924;5.320;2023-05-07T01:40:32;8.35;;;6.47;;
25191;SDS011;13143;50.924;5.320;2023-05-07T01:43:12;9.75;;;6.57;;
25191;SDS011;13143;50.924;5.320;2023-05-07T01:45:44;10.57;;;6.65;;
25191;SDS011;13143;50.924;5.320;2023-05-07T01:48:15;7.78;;;6.20;;
25191;SDS011;13143;50.924;5.320;2023-05-07T01:50:41;9.07;;;6.30;;
25191;SDS011;13143;50.924;5.320;2023-05-07T01:53:12;8.52;;;6.13;;
25191;SDS011;13143;50.924;5.320;2023-05-07T01:55:50;10.50;;;6.82;;
25191;SDS011;13143;50.924;5.320;2023-05-07T01:58:28;11.70;;;6.45;;
25191;SDS011;13143;50.924;5.320;2023-05-07T02:00:58;11.13;;;6.57;;
25191;SDS011;13143;50.924;5.320;2023-05-07T02:03:38;9.25;;;6.50;;
25191;SDS011;13143;50.924;5.320;2023-05-07T02:06:07;10.30;;;6.80;;
25191;SDS011;13143;50.924;5.320;2023-05-07T02:08:36;10.77;;;6.60;;
25191;SDS011;13143;50.924;5.320;2023-05-07T02:11:06;14.13;;;6.97;;
25191;SDS011;13143;50.924;5.320;2023-05-07T02:13:33;9.27;;;6.05;;
25191;SDS011;13143;50.924;5.320;2023-05-07T02:16:00;10.63;;;6.10;;
25191;SDS011;13143;50.924;5.320;2023-05-07T02:18:27;10.18;;;6.50;;
25191;SDS011;13143;50.924;5.320;2023-05-07T02:20:53;16.88;;;6.45;;
25191;SDS011;13143;50.924;5.320;2023-05-07T02:23:40;9.25;;;6.53;;
25191;SDS011;13143;50.924;5.320;2023-05-07T02:26:17;9.60;;;7.13;;
25191;SDS011;13143;50.924;5.320;2023-05-07T02:28:54;11.48;;;7.72;;
25191;SDS011;13143;50.924;5.320;2023-05-07T02:31:23;10.70;;;8.20;;
25191;SDS011;13143;50.924;5.320;2023-05-07T02:34:02;11.43;;;8.18;;
25191;SDS011;13143;50.924;5.320;2023-05-07T02:36:48;15.85;;;8.73;;
25191;SDS011;13143;50.924;5.320;2023-05-07T02:39:15;13.52;;;8.43;;
25191;SDS011;13143;50.924;5.320;2023-05-07T02:41:47;12.80;;;8.77;;
25191;SDS011;13143;50.924;5.320;2023-05-07T02:44:13;13.38;;;8.05;;
25191;SDS011;13143;50.924;5.320;2023-05-07T02:46:49;10.45;;;8.10;;
25191;SDS011;13143;50.924;5.320;2023-05-07T02:49:15;10.65;;;8.27;;
25191;SDS011;13143;50.924;5.320;2023-05-07T02:51:42;12.00;;;8.52;;
25191;SDS011;13143;50.924;5.320;2023-05-07T02:54:08;10.38;;;8.20;;
25191;SDS011;13143;50.924;5.320;2023-05-07T02:56:34;10.80;;;8.77;;
25191;SDS011;13143;50.924;5.320;2023-05-07T02:59:00;11.25;;;8.50;;
25191;SDS011;13143;50.924;5.320;2023-05-07T03:01:29;12.43;;;8.75;;
25191;SDS011;13143;50.924;5.320;2023-05-07T03:04:08;10.30;;;7.93;;
25191;SDS011;13143;50.924;5.320;2023-05-07T03:06:38;15.48;;;8.73;;
25191;SDS011;13143;50.924;5.320;2023-05-07T03:09:11;9.63;;;7.85;;
25191;SDS011;13143;50.924;5.320;2023-05-07T03:12:05;14.25;;;8.65;;
25191;SDS011;13143;50.924;5.320;2023-05-07T03:14:31;10.25;;;8.10;;
25191;SDS011;13143;50.924;5.320;2023-05-07T03:17:06;10.85;;;8.30;;
25191;SDS011;13143;50.924;5.320;2023-05-07T03:19:38;11.82;;;8.30;;
25191;SDS011;13143;50.924;5.320;2023-05-07T03:22:08;13.25;;;8.70;;
25191;SDS011;13143;50.924;5.320;2023-05-07T03:24:37;12.52;;;8.55;;
25191;SDS011;13143;50.924;5.320;2023-05-07T03:27:03;14.07;;;8.95;;
25191;SDS011;13143;50.924;5.320;2023-05-07T03:29:30;11.93;;;8.73;;
25191;SDS011;13143;50.924;5.320;2023-05-07T03:31:56;10.43;;;8.57;;
25191;SDS011;13143;50.924;5.320;2023-05-07T03:34:22;10.60;;;8.88;;
25191;SDS011;13143;50.924;5.320;2023-05-07T03:36:49;13.60;;;8.73;;
25191;SDS011;13143;50.924;5.320;2023-05-07T03:39:18;11.77;;;8.95;;
25191;SDS011;13143;50.924;5.320;2023-05-07T03:42:06;10.43;;;8.85;;
25191;SDS011;13143;50.924;5.320;2023-05-07T03:44:31;12.27;;;8.48;;
25191;SDS011;13143;50.924;5.320;2023-05-07T03:47:09;10.88;;;8.30;;
25191;SDS011;13143;50.924;5.320;2023-05-07T03:49:45;13.32;;;8.40;;
25191;SDS011;13143;50.924;5.320;2023-05-07T03:52:16;11.60;;;8.02;;
25191;SDS011;13143;50.924;5.320;2023-05-07T03:54:48;11.50;;;8.60;;
25191;SDS011;13143;50.924;5.320;2023-05-07T03:59:54;15.13;;;8.93;;
25191;SDS011;13143;50.924;5.320;2023-05-07T04:02:29;14.05;;;9.85;;
25191;SDS011;13143;50.924;5.320;2023-05-07T04:05:04;11.82;;;9.70;;
25191;SDS011;13143;50.924;5.320;2023-05-07T04:07:42;18.42;;;9.38;;
25191;SDS011;13143;50.924;5.320;2023-05-07T04:10:08;13.98;;;9.82;;
25191;SDS011;13143;50.924;5.320;2023-05-07T04:12:35;13.45;;;10.45;;
25191;SDS011;13143;50.924;5.320;2023-05-07T04:15:01;12.82;;;9.60;;
25191;SDS011;13143;50.924;5.320;2023-05-07T04:17:28;10.05;;;8.98;;
25191;SDS011;13143;50.924;5.320;2023-05-07T04:19:54;14.88;;;9.93;;
25191;SDS011;13143;50.924;5.320;2023-05-07T04:22:23;14.88;;;10.68;;
25191;SDS011;13143;50.924;5.320;2023-05-07T04:25:11;13.85;;;10.13;;
25191;SDS011;13143;50.924;5.320;2023-05-07T04:27:37;12.60;;;10.45;;
25191;SDS011;13143;50.924;5.320;2023-05-07T04:30:09;14.65;;;10.63;;
25191;SDS011;13143;50.924;5.320;2023-05-07T04:32:39;19.08;;;11.13;;
25191;SDS011;13143;50.924;5.320;2023-05-07T04:35:15;18.58;;;10.43;;
25191;SDS011;13143;50.924;5.320;2023-05-07T04:37:50;13.88;;;11.02;;
25191;SDS011;13143;50.924;5.320;2023-05-07T04:40:32;15.23;;;10.80;;
25191;SDS011;13143;50.924;5.320;2023-05-07T04:43:21;16.00;;;11.05;;
25191;SDS011;13143;50.924;5.320;2023-05-07T04:45:57;14.65;;;10.60;;
25191;SDS011;13143;50.924;5.320;2023-05-07T04:48:44;16.95;;;11.27;;
25191;SDS011;13143;50.924;5.320;2023-05-07T04:51:11;14.93;;;12.45;;
25191;SDS011;13143;50.924;5.320;2023-05-07T04:53:43;19.67;;;13.40;;
25191;SDS011;13143;50.924;5.320;2023-05-07T04:56:13;15.07;;;13.00;;
25191;SDS011;13143;50.924;5.320;2023-05-07T04:58:46;16.73;;;12.67;;
25191;SDS011;13143;50.924;5.320;2023-05-07T05:01:14;15.48;;;12.52;;
25191;SDS011;13143;50.924;5.320;2023-05-07T05:06:42;13.40;;;11.73;;
25191;SDS011;13143;50.924;5.320;2023-05-07T05:09:08;15.85;;;11.60;;
25191;SDS011;13143;50.924;5.320;2023-05-07T05:11:38;15.18;;;12.10;;
25191;SDS011;13143;50.924;5.320;2023-05-07T05:14:05;21.10;;;12.43;;
25191;SDS011;13143;50.924;5.320;2023-05-07T05:16:31;19.48;;;12.10;;
25191;SDS011;13143;50.924;5.320;2023-05-07T05:19:01;15.95;;;11.10;;
25191;SDS011;13143;50.924;5.320;2023-05-07T05:21:28;15.38;;;11.48;;
25191;SDS011;13143;50.924;5.320;2023-05-07T05:23:54;14.50;;;11.73;;
25191;SDS011;13143;50.924;5.320;2023-05-07T05:26:24;13.00;;;10.77;;
25191;SDS011;13143;50.924;5.320;2023-05-07T05:29:02;12.65;;;10.88;;
25191;SDS011;13143;50.924;5.320;2023-05-07T05:31:28;14.73;;;10.25;;
25191;SDS011;13143;50.924;5.320;2023-05-07T05:34:13;14.95;;;10.88;;
25191;SDS011;13143;50.924;5.320;2023-05-07T05:36:45;12.60;;;9.65;;
25191;SDS011;13143;50.924;5.320;2023-05-07T05:39:20;12.25;;;9.60;;
25191;SDS011;13143;50.924;5.320;2023-05-07T05:41:53;12.75;;;9.50;;
25191;SDS011;13143;50.924;5.320;2023-05-07T05:44:24;17.88;;;10.27;;
25191;SDS011;13143;50.924;5.320;2023-05-07T05:46:53;12.75;;;9.65;;
25191;SDS011;13143;50.924;5.320;2023-05-07T05:49:23;12.38;;;9.18;;
25191;SDS011;13143;50.924;5.320;2023-05-07T05:51:52;12.63;;;9.52;;
25191;SDS011;13143;50.924;5.320;2023-05-07T05:54:19;11.73;;;10.23;;
25191;SDS011;13143;50.924;5.320;2023-05-07T05:56:45;12.50;;;9.32;;
25191;SDS011;13143;50.924;5.320;2023-05-07T05:59:12;13.25;;;9.13;;
25191;SDS011;13143;50.924;5.320;2023-05-07T06:01:38;13.10;;;9.57;;
25191;SDS011;13143;50.924;5.320;2023-05-07T06:04:07;10.02;;;9.02;;
25191;SDS011;13143;50.924;5.320;2023-05-07T06:06:37;13.15;;;10.27;;
25191;SDS011;13143;50.924;5.320;2023-05-07T06:09:06;12.93;;;10.48;;
25191;SDS011;13143;50.924;5.320;2023-05-07T06:11:33;12.05;;;9.18;;
25191;SDS011;13143;50.924;5.320;2023-05-07T06:13:59;9.73;;;8.65;;
25191;SDS011;13143;50.924;5.320;2023-05-07T06:16:25;15.70;;;9.50;;
25191;SDS011;13143;50.924;5.320;2023-05-07T06:18:51;15.93;;;9.43;;
25191;SDS011;13143;50.924;5.320;2023-05-07T06:21:18;11.82;;;9.13;;
25191;SDS011;13143;50.924;5.320;2023-05-07T06:23:44;10.00;;;8.88;;
25191;SDS011;13143;50.924;5.320;2023-05-07T06:26:11;10.20;;;9.13;;
25191;SDS011;13143;50.924;5.320;2023-05-07T06:28:40;12.73;;;9.00;;
25191;SDS011;13143;50.924;5.320;2023-05-07T06:31:13;16.30;;;9.43;;
25191;SDS011;13143;50.924;5.320;2023-05-07T06:33:48;16.92;;;9.45;;
25191;SDS011;13143;50.924;5.320;2023-05-07T06:36:15;15.25;;;8.77;;
25191;SDS011;13143;50.924;5.320;2023-05-07T06:38:42;12.27;;;8.63;;
25191;SDS011;13143;50.924;5.320;2023-05-07T06:41:08;13.55;;;8.07;;
25191;SDS011;13143;50.924;5.320;2023-05-07T06:43:35;10.15;;;8.35;;
25191;SDS011;13143;50.924;5.320;2023-05-07T06:46:01;11.57;;;8.02;;
25191;SDS011;13143;50.924;5.320;2023-05-07T06:48:27;11.38;;;8.07;;
25191;SDS011;13143;50.924;5.320;2023-05-07T06:50:57;15.75;;;8.85;;
25191;SDS011;13143;50.924;5.320;2023-05-07T06:53:24;15.98;;;7.50;;
25191;SDS011;13143;50.924;5.320;2023-05-07T06:55:51;12.18;;;7.38;;
25191;SDS011;13143;50.924;5.320;2023-05-07T06:58:17;8.10;;;6.63;;
25191;SDS011;13143;50.924;5.320;2023-05-07T07:00:44;9.00;;;6.22;;
25191;SDS011;13143;50.924;5.320;2023-05-07T07:03:11;8.73;;;6.20;;
25191;SDS011;13143;50.924;5.320;2023-05-07T07:05:37;11.60;;;6.97;;
25191;SDS011;13143;50.924;5.320;2023-05-07T07:08:07;13.07;;;7.35;;
25191;SDS011;13143;50.924;5.320;2023-05-07T07:10:36;13.50;;;7.28;;
25191;SDS011;13143;50.924;5.320;2023-05-07T07:13:06;12.25;;;6.50;;
25191;SDS011;13143;50.924;5.320;2023-05-07T07:15:41;10.70;;;7.28;;
25191;SDS011;13143;50.924;5.320;2023-05-07T07:18:08;14.95;;;8.05;;
25191;SDS011;13143;50.924;5.320;2023-05-07T07:20:37;11.48;;;7.50;;
25191;SDS011;13143;50.924;5.320;2023-05-07T07:23:04;13.23;;;7.43;;
25191;SDS011;13143;50.924;5.320;2023-05-07T07:25:33;11.02;;;6.47;;
25191;SDS011;13143;50.924;5.320;2023-05-07T07:27:59;11.80;;;7.40;;
25191;SDS011;13143;50.924;5.320;2023-05-07T07:30:26;12.00;;;8.25;;
25191;SDS011;13143;50.924;5.320;2023-05-07T07:32:53;9.40;;;7.35;;
25191;SDS011;13143;50.924;5.320;2023-05-07T07:35:32;12.60;;;6.68;;
25191;SDS011;13143;50.924;5.320;2023-05-07T07:38:11;11.52;;;6.88;;
25191;SDS011;13143;50.924;5.320;2023-05-07T07:40:48;15.05;;;6.70;;
25191;SDS011;13143;50.924;5.320;2023-05-07T07:43:17;9.00;;;6.45;;
25191;SDS011;13143;50.924;5.320;2023-05-07T07:45:47;9.20;;;6.47;;
25191;SDS011;13143;50.924;5.320;2023-05-07T07:48:19;9.00;;;5.80;;
25191;SDS011;13143;50.924;5.320;2023-05-07T07:50:48;9.02;;;5.78;;
25191;SDS011;13143;50.924;5.320;2023-05-07T07:53:16;8.02;;;5.93;;
25191;SDS011;13143;50.924;5.320;2023-05-07T07:55:46;10.60;;;5.60;;
25191;SDS011;13143;50.924;5.320;2023-05-07T07:58:13;8.88;;;5.95;;
25191;SDS011;13143;50.924;5.320;2023-05-07T08:00:39;15.32;;;5.55;;
25191;SDS011;13143;50.924;5.320;2023-05-07T08:03:05;9.57;;;5.40;;
25191;SDS011;13143;50.924;5.320;2023-05-07T08:05:34;7.10;;;5.70;;
25191;SDS011;13143;50.924;5.320;2023-05-07T08:08:05;9.77;;;5.60;;
25191;SDS011;13143;50.924;5.320;2023-05-07T08:10:32;12.55;;;6.05;;
25191;SDS011;13143;50.924;5.320;2023-05-07T08:13:03;10.15;;;6.10;;
25191;SDS011;13143;50.924;5.320;2023-05-07T08:15:33;11.35;;;5.65;;
25191;SDS011;13143;50.924;5.320;2023-05-07T08:17:59;10.02;;;6.50;;
25191;SDS011;13143;50.924;5.320;2023-05-07T08:20:26;11.65;;;6.22;;
25191;SDS011;13143;50.924;5.320;2023-05-07T08:22:53;11.60;;;6.78;;
25191;SDS011;13143;50.924;5.320;2023-05-07T08:25:20;12.48;;;6.60;;
25191;SDS011;13143;50.924;5.320;2023-05-07T08:27:46;13.27;;;7.32;;
25191;SDS011;13143;50.924;5.320;2023-05-07T08:33:05;9.30;;;6.57;;
25191;SDS011;13143;50.924;5.320;2023-05-07T08:35:33;10.05;;;6.15;;
25191;SDS011;13143;50.924;5.320;2023-05-07T08:38:03;12.30;;;7.07;;
25191;SDS011;13143;50.924;5.320;2023-05-07T08:40:30;11.38;;;7.07;;
25191;SDS011;13143;50.924;5.320;2023-05-07T08:43:25;12.95;;;7.70;;
25191;SDS011;13143;50.924;5.320;2023-05-07T08:45:53;11.23;;;6.80;;
25191;SDS011;13143;50.924;5.320;2023-05-07T08:48:39;12.27;;;6.10;;
25191;SDS011;13143;50.924;5.320;2023-05-07T08:51:15;11.52;;;6.15;;
25191;SDS011;13143;50.924;5.320;2023-05-07T08:56:41;13.82;;;6.43;;
25191;SDS011;13143;50.924;5.320;2023-05-07T08:59:08;16.02;;;7.72;;
25191;SDS011;13143;50.924;5.320;2023-05-07T09:01:34;11.98;;;8.00;;
25191;SDS011;13143;50.924;5.320;2023-05-07T09:04:16;15.15;;;7.93;;
25191;SDS011;13143;50.924;5.320;2023-05-07T09:06:48;15.15;;;8.85;;
25191;SDS011;13143;50.924;5.320;2023-05-07T09:09:21;20.23;;;10.20;;
25191;SDS011;13143;50.924;5.320;2023-05-07T09:11:56;14.05;;;8.38;;
25191;SDS011;13143;50.924;5.320;2023-05-07T09:14:28;12.70;;;7.03;;
25191;SDS011;13143;50.924;5.320;2023-05-07T09:17:03;15.10;;;9.07;;
25191;SDS011;13143;50.924;5.320;2023-05-07T09:19:38;18.95;;;10.50;;
25191;SDS011;13143;50.924;5.320;2023-05-07T09:22:14;20.30;;;9.73;;
25191;SDS011;13143;50.924;5.320;2023-05-07T09:24:47;16.23;;;9.20;;
25191;SDS011;13143;50.924;5.320;2023-05-07T09:29:40;16.60;;;9.40;;
25191;SDS011;13143;50.924;5.320;2023-05-07T09:32:08;14.57;;;9.07;;
25191;SDS011;13143;50.924;5.320;2023-05-07T09:34:35;17.75;;;9.65;;
25191;SDS011;13143;50.924;5.320;2023-05-07T09:37:02;17.13;;;8.13;;
25191;SDS011;13143;50.924;5.320;2023-05-07T09:39:41;16.63;;;8.35;;
25191;SDS011;13143;50.924;5.320;2023-05-07T09:42:09;12.90;;;7.22;;
25191;SDS011;13143;50.924;5.320;2023-05-07T09:44:40;10.23;;;6.65;;
25191;SDS011;13143;50.924;5.320;2023-05-07T09:47:16;13.77;;;6.70;;
25191;SDS011;13143;50.924;5.320;2023-05-07T09:49:46;15.50;;;6.90;;
25191;SDS011;13143;50.924;5.320;2023-05-07T09:52:30;16.92;;;6.43;;
25191;SDS011;13143;50.924;5.320;2023-05-07T09:55:00;17.52;;;7.53;;
25191;SDS011;13143;50.924;5.320;2023-05-07T09:57:32;14.63;;;7.65;;
25191;SDS011;13143;50.924;5.320;2023-05-07T10:00:16;16.83;;;7.32;;
25191;SDS011;13143;50.924;5.320;2023-05-07T10:03:05;17.88;;;7.03;;
25191;SDS011;13143;50.924;5.320;2023-05-07T10:05:33;18.65;;;7.68;;
25191;SDS011;13143;50.924;5.320;2023-05-07T10:08:14;14.23;;;7.38;;
25191;SDS011;13143;50.924;5.320;2023-05-07T10:10:42;16.48;;;7.72;;
25191;SDS011;13143;50.924;5.320;2023-05-07T10:13:12;14.88;;;7.13;;
25191;SDS011;13143;50.924;5.320;2023-05-07T10:15:38;16.02;;;6.88;;
25191;SDS011;13143;50.924;5.320;2023-05-07T10:18:06;13.40;;;6.57;;
25191;SDS011;13143;50.924;5.320;2023-05-07T10:20:39;15.27;;;6.57;;
25191;SDS011;13143;50.924;5.320;2023-05-07T10:23:08;12.75;;;6.78;;
25191;SDS011;13143;50.924;5.320;2023-05-07T10:25:38;12.10;;;6.50;;
25191;SDS011;13143;50.924;5.320;2023-05-07T10:28:06;11.38;;;6.93;;
25191;SDS011;13143;50.924;5.320;2023-05-07T10:33:06;15.25;;;6.68;;
25191;SDS011;13143;50.924;5.320;2023-05-07T10:35:41;18.20;;;7.00;;
25191;SDS011;13143;50.924;5.320;2023-05-07T10:38:10;13.48;;;6.88;;
25191;SDS011;13143;50.924;5.320;2023-05-07T10:40:54;17.77;;;7.50;;
25191;SDS011;13143;50.924;5.320;2023-05-07T10:43:24;15.68;;;7.45;;
25191;SDS011;13143;50.924;5.320;2023-05-07T10:51:32;17.30;;;7.70;;
25191;SDS011;13143;50.924;5.320;2023-05-07T10:56:41;17.08;;;8.27;;
25191;SDS011;13143;50.924;5.320;2023-05-07T11:01:57;16.90;;;8.67;;
25191;SDS011;13143;50.924;5.320;2023-05-07T11:13:02;15.60;;;7.15;;
25191;SDS011;13143;50.924;5.320;2023-05-07T11:15:06;15.98;;;6.75;;
25191;SDS011;13143;50.924;5.320;2023-05-07T11:20:19;14.70;;;6.20;;
25191;SDS011;13143;50.924;5.320;2023-05-07T11:22:46;17.35;;;6.30;;
25191;SDS011;13143;50.924;5.320;2023-05-07T11:25:19;18.75;;;6.03;;
25191;SDS011;13143;50.924;5.320;2023-05-07T11:27:45;11.98;;;5.63;;
25191;SDS011;13143;50.924;5.320;2023-05-07T11:30:23;14.77;;;5.80;;
25191;SDS011;13143;50.924;5.320;2023-05-07T11:32:59;15.50;;;5.80;;
25191;SDS011;13143;50.924;5.320;2023-05-07T11:35:49;16.88;;;6.55;;
25191;SDS011;13143;50.924;5.320;2023-05-07T11:38:19;16.75;;;6.35;;
25191;SDS011;13143;50.924;5.320;2023-05-07T11:40:49;14.90;;;6.25;;
25191;SDS011;13143;50.924;5.320;2023-05-07T11:43:35;14.95;;;6.22;;
25191;SDS011;13143;50.924;5.320;2023-05-07T11:46:09;11.02;;;5.53;;
25191;SDS011;13143;50.924;5.320;2023-05-07T11:48:39;12.68;;;5.63;;
25191;SDS011;13143;50.924;5.320;2023-05-07T11:51:08;15.38;;;5.38;;
25191;SDS011;13143;50.924;5.320;2023-05-07T11:53:51;11.23;;;6.50;;
25191;SDS011;13143;50.924;5.320;2023-05-07T11:56:24;12.15;;;6.55;;
25191;SDS011;13143;50.924;5.320;2023-05-07T11:59:03;15.10;;;6.78;;
25191;SDS011;13143;50.924;5.320;2023-05-07T12:01:42;13.00;;;6.72;;
25191;SDS011;13143;50.924;5.320;2023-05-07T12:06:55;16.65;;;6.93;;
25191;SDS011;13143;50.924;5.320;2023-05-07T12:09:27;13.05;;;6.80;;
25191;SDS011;13143;50.924;5.320;2023-05-07T12:12:03;12.65;;;6.82;;
25191;SDS011;13143;50.924;5.320;2023-05-07T12:14:30;18.27;;;6.93;;
25191;SDS011;13143;50.924;5.320;2023-05-07T12:17:01;13.60;;;7.15;;
25191;SDS011;13143;50.924;5.320;2023-05-07T12:19:31;15.52;;;7.03;;
25191;SDS011;13143;50.924;5.320;2023-05-07T12:21:59;17.20;;;7.50;;
25191;SDS011;13143;50.924;5.320;2023-05-07T12:24:26;15.57;;;7.50;;
25191;SDS011;13143;50.924;5.320;2023-05-07T12:26:52;13.32;;;7.43;;
25191;SDS011;13143;50.924;5.320;2023-05-07T12:29:22;14.25;;;6.72;;
25191;SDS011;13143;50.924;5.320;2023-05-07T12:31:49;11.70;;;6.40;;
25191;SDS011;13143;50.924;5.320;2023-05-07T12:34:16;12.55;;;6.57;;
25191;SDS011;13143;50.924;5.320;2023-05-07T12:36:45;9.82;;;6.10;;
25191;SDS011;13143;50.924;5.320;2023-05-07T12:39:16;13.15;;;5.45;;
25191;SDS011;13143;50.924;5.320;2023-05-07T12:41:52;12.48;;;5.25;;
25191;SDS011;13143;50.924;5.320;2023-05-07T12:44:21;9.60;;;5.53;;
25191;SDS011;13143;50.924;5.320;2023-05-07T12:46:52;12.93;;;5.90;;
25191;SDS011;13143;50.924;5.320;2023-05-07T12:49:20;14.77;;;5.97;;
25191;SDS011;13143;50.924;5.320;2023-05-07T12:51:51;13.10;;;5.28;;
25191;SDS011;13143;50.924;5.320;2023-05-07T12:54:33;11.90;;;5.80;;
25191;SDS011;13143;50.924;5.320;2023-05-07T12:59:31;13.30;;;4.07;;
25191;SDS011;13143;50.924;5.320;2023-05-07T13:02:06;14.40;;;5.75;;
25191;SDS011;13143;50.924;5.320;2023-05-07T13:04:33;9.73;;;4.40;;
25191;SDS011;13143;50.924;5.320;2023-05-07T13:07:00;11.10;;;4.30;;
25191;SDS011;13143;50.924;5.320;2023-05-07T13:09:30;11.35;;;4.20;;
25191;SDS011;13143;50.924;5.320;2023-05-07T13:11:57;10.82;;;4.40;;
25191;SDS011;13143;50.924;5.320;2023-05-07T13:14:31;9.98;;;4.75;;
25191;SDS011;13143;50.924;5.320;2023-05-07T13:17:00;13.38;;;4.57;;
25191;SDS011;13143;50.924;5.320;2023-05-07T13:19:29;8.85;;;4.15;;
25191;SDS011;13143;50.924;5.320;2023-05-07T13:21:59;16.02;;;5.25;;
25191;SDS011;13143;50.924;5.320;2023-05-07T13:24:25;12.57;;;5.32;;
25191;SDS011;13143;50.924;5.320;2023-05-07T13:26:51;12.13;;;4.88;;
25191;SDS011;13143;50.924;5.320;2023-05-07T13:29:18;15.95;;;5.95;;
25191;SDS011;13143;50.924;5.320;2023-05-07T13:31:44;9.27;;;4.55;;
25191;SDS011;13143;50.924;5.320;2023-05-07T13:34:10;8.45;;;3.95;;
25191;SDS011;13143;50.924;5.320;2023-05-07T13:36:39;9.85;;;4.28;;
25191;SDS011;13143;50.924;5.320;2023-05-07T13:39:07;13.02;;;5.38;;
25191;SDS011;13143;50.924;5.320;2023-05-07T13:41:36;11.30;;;5.10;;
25191;SDS011;13143;50.924;5.320;2023-05-07T13:44:03;9.77;;;4.97;;
25191;SDS011;13143;50.924;5.320;2023-05-07T13:46:32;14.02;;;5.15;;
25191;SDS011;13143;50.924;5.320;2023-05-07T13:48:58;12.18;;;4.60;;
25191;SDS011;13143;50.924;5.320;2023-05-07T13:51:24;10.63;;;4.22;;
25191;SDS011;13143;50.924;5.320;2023-05-07T13:53:54;14.93;;;4.88;;
25191;SDS011;13143;50.924;5.320;2023-05-07T13:56:30;12.77;;;4.47;;
25191;SDS011;13143;50.924;5.320;2023-05-07T13:59:00;13.65;;;4.88;;
25191;SDS011;13143;50.924;5.320;2023-05-07T14:01:38;9.13;;;4.07;;
25191;SDS011;13143;50.924;5.320;2023-05-07T14:04:10;13.35;;;4.25;;
25191;SDS011;13143;50.924;5.320;2023-05-07T14:06:42;12.82;;;5.10;;
25191;SDS011;13143;50.924;5.320;2023-05-07T14:09:09;9.35;;;4.40;;
25191;SDS011;13143;50.924;5.320;2023-05-07T14:11:56;9.60;;;4.13;;
25191;SDS011;13143;50.924;5.320;2023-05-07T14:14:24;10.38;;;4.10;;
25191;SDS011;13143;50.924;5.320;2023-05-07T14:16:50;8.23;;;4.75;;
25191;SDS011;13143;50.924;5.320;2023-05-07T14:19:17;9.80;;;3.55;;
25191;SDS011;13143;50.924;5.320;2023-05-07T14:21:43;12.35;;;4.07;;
25191;SDS011;13143;50.924;5.320;2023-05-07T14:24:10;14.68;;;4.03;;
25191;SDS011;13143;50.924;5.320;2023-05-07T14:26:36;8.80;;;3.10;;
25191;SDS011;13143;50.924;5.320;2023-05-07T14:29:06;9.60;;;3.72;;
25191;SDS011;13143;50.924;5.320;2023-05-07T14:31:35;7.95;;;3.63;;
25191;SDS011;13143;50.924;5.320;2023-05-07T14:34:05;10.50;;;4.32;;
25191;SDS011;13143;50.924;5.320;2023-05-07T14:36:46;10.70;;;3.88;;
25191;SDS011;13143;50.924;5.320;2023-05-07T14:39:18;8.60;;;4.00;;
25191;SDS011;13143;50.924;5.320;2023-05-07T14:41:44;10.20;;;3.08;;
25191;SDS011;13143;50.924;5.320;2023-05-07T14:44:10;6.30;;;2.50;;
25191;SDS011;13143;50.924;5.320;2023-05-07T14:46:37;7.03;;;3.00;;
25191;SDS011;13143;50.924;5.320;2023-05-07T14:49:03;8.43;;;3.40;;
25191;SDS011;13143;50.924;5.320;2023-05-07T14:51:29;8.07;;;3.08;;
25191;SDS011;13143;50.924;5.320;2023-05-07T14:53:56;6.47;;;3.22;;
25191;SDS011;13143;50.924;5.320;2023-05-07T14:56:22;10.98;;;3.90;;
25191;SDS011;13143;50.924;5.320;2023-05-07T14:58:52;10.43;;;3.60;;
25191;SDS011;13143;50.924;5.320;2023-05-07T15:01:19;10.93;;;3.50;;
25191;SDS011;13143;50.924;5.320;2023-05-07T15:03:46;9.55;;;3.83;;
25191;SDS011;13143;50.924;5.320;2023-05-07T15:06:12;9.35;;;3.42;;
25191;SDS011;13143;50.924;5.320;2023-05-07T15:08:38;10.35;;;4.05;;
25191;SDS011;13143;50.924;5.320;2023-05-07T15:11:04;7.70;;;3.42;;
25191;SDS011;13143;50.924;5.320;2023-05-07T15:13:31;10.40;;;3.40;;
25191;SDS011;13143;50.924;5.320;2023-05-07T15:15:57;8.70;;;3.22;;
25191;SDS011;13143;50.924;5.320;2023-05-07T15:18:27;6.28;;;2.88;;
25191;SDS011;13143;50.924;5.320;2023-05-07T15:20:54;9.38;;;3.28;;
25191;SDS011;13143;50.924;5.320;2023-05-07T15:23:21;7.07;;;3.40;;
25191;SDS011;13143;50.924;5.320;2023-05-07T15:25:51;7.78;;;3.13;;
25191;SDS011;13143;50.924;5.320;2023-05-07T15:28:18;6.88;;;3.35;;
25191;SDS011;13143;50.924;5.320;2023-05-07T15:30:44;6.90;;;3.10;;
25191;SDS011;13143;50.924;5.320;2023-05-07T15:33:11;6.80;;;2.90;;
25191;SDS011;13143;50.924;5.320;2023-05-07T15:35:37;7.70;;;3.10;;
25191;SDS011;13143;50.924;5.320;2023-05-07T15:38:06;8.20;;;2.95;;